PILOTS ONLINE: 492    ATC ONLINE: 57

SBUG - Rubem Berta Airport

Location

IATA URG
City Uruguaiana
Country  Brazil
Latitude 29° 46' 55" S
Longitude 57° 2' 17" W
Elevation 256 ft
Type Medium Airport

Runways

4/22 2625 ft / 164 ft
9/27 4921 ft / 98 ft

Weather

METAR
2014/07/28 16:00
SBUG 281600Z 05011KT CAVOK 17/10 Q1024
TAF
2014/07/28 12:43
TAF SBUG 281000Z 2812/2912 08008KT CAVOK TX19/2817Z TN11/2909Z PROB30 2902/2912 0800 FG BKN005 
      RMK PEL

Outbound flights

Inbound flights